createdAt,value
2018-05-23T00:00:47.891Z,62.78
2018-05-23T00:03:15.275Z,63.18
2018-05-23T00:05:43.039Z,62.46
2018-05-23T00:08:10.439Z,62.93
2018-05-23T00:10:37.870Z,62.69
2018-05-23T00:13:05.249Z,63.03
2018-05-23T00:15:33.006Z,62.98
2018-05-23T00:18:00.389Z,63.61
2018-05-23T00:20:27.789Z,63.80
2018-05-23T00:22:55.181Z,63.58
2018-05-23T00:25:22.623Z,63.02
2018-05-23T00:27:50.012Z,62.80
2018-05-23T00:30:17.405Z,64.08
2018-05-23T00:32:44.791Z,63.86
2018-05-23T00:35:13.041Z,63.88
2018-05-23T00:37:40.415Z,64.12
2018-05-23T00:40:07.822Z,64.95
2018-05-23T00:42:37.147Z,64.61
2018-05-23T00:45:04.552Z,63.92
2018-05-23T00:47:31.935Z,65.04
2018-05-23T00:49:59.351Z,64.75
2018-05-23T00:52:26.734Z,65.46
2018-05-23T00:55:05.918Z,65.41
2018-05-23T00:57:33.828Z,64.76
2018-05-23T01:00:01.218Z,65.09
2018-05-23T01:02:28.617Z,65.38
2018-05-23T01:04:55.995Z,65.32
2018-05-23T01:07:23.394Z,64.98
2018-05-23T01:09:50.921Z,64.62
2018-05-23T01:12:18.319Z,64.09
2018-05-23T01:14:45.697Z,63.85
2018-05-23T01:17:13.210Z,65.53
2018-05-23T01:19:40.604Z,65.10
2018-05-23T01:22:08.008Z,66.35
2018-05-23T01:24:35.384Z,65.94
2018-05-23T01:27:02.784Z,65.76
2018-05-23T01:29:30.194Z,65.82
2018-05-23T01:31:57.570Z,65.00
2018-05-23T01:34:24.956Z,64.53
2018-05-23T01:36:52.348Z,64.89
2018-05-23T01:39:19.741Z,65.17
2018-05-23T01:41:47.141Z,64.29
2018-05-23T01:44:14.529Z,63.92
2018-05-23T01:46:42.144Z,63.93
2018-05-23T01:49:21.192Z,64.30
2018-05-23T01:51:48.855Z,64.04
2018-05-23T01:54:16.252Z,63.67
2018-05-23T01:56:43.644Z,64.15
2018-05-23T01:59:11.201Z,64.29
2018-05-23T02:01:38.503Z,63.82
2018-05-23T02:04:05.938Z,64.33
2018-05-23T02:06:33.336Z,63.57
2018-05-23T02:09:00.737Z,63.59
2018-05-23T02:11:28.137Z,63.44
2018-05-23T02:13:55.515Z,63.43
2018-05-23T02:16:22.912Z,62.84
2018-05-23T02:18:52.267Z,63.23
2018-05-23T02:21:19.657Z,62.90
2018-05-23T02:23:47.064Z,62.81
2018-05-23T02:26:14.452Z,63.30
2018-05-23T02:28:41.841Z,63.40
2018-05-23T02:31:09.265Z,63.18
2018-05-23T02:33:36.646Z,63.50
2018-05-23T02:36:04.047Z,63.26
2018-05-23T02:38:31.439Z,63.14
2018-05-23T02:40:58.837Z,63.10
2018-05-23T02:43:26.228Z,63.31
2018-05-23T02:45:53.963Z,63.50
2018-05-23T02:48:21.356Z,63.89
2018-05-23T02:50:48.755Z,64.29
2018-05-23T02:53:16.342Z,63.78
2018-05-23T02:55:43.823Z,64.10
2018-05-23T02:58:11.224Z,63.98
2018-05-23T03:00:38.613Z,63.95
2018-05-23T03:03:06.063Z,63.02
2018-05-23T03:05:33.382Z,63.29
2018-05-23T03:08:00.856Z,63.87
2018-05-23T03:10:28.155Z,63.62
2018-05-23T03:12:55.548Z,63.51
2018-05-23T03:15:22.932Z,63.32
2018-05-23T03:17:50.327Z,63.42
2018-05-23T03:20:17.702Z,63.46
2018-05-23T03:22:45.098Z,63.64
2018-05-23T03:25:12.487Z,63.89
2018-05-23T03:27:39.887Z,63.56
2018-05-23T03:30:07.266Z,63.66
2018-05-23T03:32:34.662Z,63.73
2018-05-23T03:35:02.043Z,63.31
2018-05-23T03:37:29.433Z,64.54
2018-05-23T03:39:56.815Z,64.47
2018-05-23T03:42:24.211Z,63.93
2018-05-23T03:44:51.599Z,64.11
2018-05-23T03:47:18.996Z,64.15
2018-05-23T03:49:46.379Z,64.65
2018-05-23T03:52:13.925Z,64.42
2018-05-23T03:54:41.319Z,65.04
2018-05-23T03:57:08.702Z,65.09
2018-05-23T03:59:48.831Z,64.92
2018-05-23T04:02:27.984Z,65.09
2018-05-23T04:05:07.163Z,64.36
2018-05-23T04:07:41.350Z,64.79
2018-05-23T04:10:08.727Z,64.89
2018-05-23T04:12:36.275Z,65.28
2018-05-23T04:15:03.691Z,64.63
2018-05-23T04:17:31.083Z,64.65
2018-05-23T04:19:58.471Z,64.97
2018-05-23T04:22:25.873Z,64.44
2018-05-23T04:24:53.288Z,64.71
2018-05-23T04:27:20.677Z,66.12
2018-05-23T04:29:48.068Z,66.58
2018-05-23T04:32:15.451Z,67.15
2018-05-23T04:34:42.839Z,69.07
2018-05-23T04:37:10.232Z,68.68
2018-05-23T04:39:37.608Z,69.72
2018-05-23T04:42:05.003Z,71.24
2018-05-23T04:44:32.390Z,72.17
2018-05-23T04:46:59.799Z,71.06
2018-05-23T04:49:27.182Z,71.40
2018-05-23T04:51:54.587Z,71.28
2018-05-23T04:54:21.959Z,71.11
2018-05-23T04:56:49.351Z,70.48
2018-05-23T04:59:16.758Z,69.59
2018-05-23T05:01:44.376Z,70.04
2018-05-23T05:04:11.773Z,70.50
2018-05-23T05:06:39.169Z,71.13
2018-05-23T05:09:06.571Z,70.49
2018-05-23T05:11:33.959Z,69.79
2018-05-23T05:14:01.372Z,70.11
2018-05-23T05:16:28.773Z,69.93
2018-05-23T05:18:56.172Z,70.41
2018-05-23T05:21:23.555Z,70.62
2018-05-23T05:23:50.949Z,70.89
2018-05-23T05:26:18.343Z,70.43
2018-05-23T05:28:46.391Z,70.11
2018-05-23T05:31:14.427Z,70.23
2018-05-23T05:33:41.831Z,69.86
2018-05-23T05:36:09.211Z,69.94
2018-05-23T05:38:36.637Z,70.21
2018-05-23T05:41:04.044Z,70.26
2018-05-23T05:43:31.470Z,70.54
2018-05-23T05:45:58.856Z,70.91
2018-05-23T05:48:26.241Z,70.50
2018-05-23T05:50:53.615Z,70.59
2018-05-23T05:53:21.012Z,70.66
2018-05-23T05:55:48.398Z,70.83
2018-05-23T05:58:15.837Z,70.62
2018-05-23T06:00:43.163Z,70.60
2018-05-23T06:03:10.558Z,70.32
2018-05-23T06:05:37.947Z,70.48
2018-05-23T06:08:05.349Z,70.54
2018-05-23T06:10:32.733Z,70.97
2018-05-23T06:13:00.132Z,70.76
2018-05-23T06:15:27.537Z,70.74
2018-05-23T06:17:54.927Z,71.07
2018-05-23T06:20:22.851Z,70.69
2018-05-23T06:22:50.252Z,70.07
2018-05-23T06:25:17.647Z,70.82
2018-05-23T06:27:45.047Z,70.25
2018-05-23T06:30:12.443Z,70.31
2018-05-23T06:32:39.836Z,69.94
2018-05-23T06:35:07.221Z,69.47
2018-05-23T06:37:34.665Z,69.17
2018-05-23T06:40:02.072Z,69.02
2018-05-23T06:42:29.514Z,68.53
2018-05-23T06:44:56.887Z,68.97
2018-05-23T06:47:24.305Z,69.39
2018-05-23T06:49:51.713Z,69.64
2018-05-23T06:52:19.134Z,69.45
2018-05-23T06:54:46.530Z,69.21
2018-05-23T06:57:14.850Z,68.39
2018-05-23T06:59:42.250Z,68.64
2018-05-23T07:02:09.646Z,68.68
2018-05-23T07:04:37.037Z,68.52
2018-05-23T07:07:04.426Z,68.66
2018-05-23T07:09:31.821Z,68.24
2018-05-23T07:11:59.204Z,68.97
2018-05-23T07:14:26.616Z,69.49
2018-05-23T07:16:54.036Z,69.82
2018-05-23T07:19:21.453Z,69.47
2018-05-23T07:21:48.875Z,68.92
2018-05-23T07:24:16.286Z,68.72
2018-05-23T07:26:43.692Z,68.41
2018-05-23T07:29:11.089Z,68.39
2018-05-23T07:31:38.502Z,68.67
2018-05-23T07:34:05.866Z,68.39
2018-05-23T07:36:33.324Z,68.31
2018-05-23T07:39:00.778Z,68.24
2018-05-23T07:41:28.196Z,67.15
2018-05-23T07:43:55.595Z,66.98
2018-05-23T07:46:23.056Z,67.17
2018-05-23T07:48:50.471Z,66.77
2018-05-23T07:51:17.863Z,66.96
2018-05-23T07:53:45.266Z,66.22
2018-05-23T07:56:12.869Z,66.83
2018-05-23T07:58:40.301Z,66.22
2018-05-23T08:01:07.717Z,66.00
2018-05-23T08:03:35.115Z,65.03
2018-05-23T08:06:02.520Z,65.21
2018-05-23T08:08:30.117Z,64.89
2018-05-23T08:10:57.714Z,65.50
2018-05-23T08:13:25.095Z,63.83
2018-05-23T08:15:52.739Z,63.83
2018-05-23T08:18:20.138Z,63.42
2018-05-23T08:20:47.538Z,63.66
2018-05-23T08:23:15.355Z,63.63
2018-05-23T08:25:42.750Z,64.27
2018-05-23T08:28:10.160Z,63.10
2018-05-23T08:30:37.550Z,63.14
2018-05-23T08:33:04.951Z,63.13
2018-05-23T08:35:32.391Z,62.66
2018-05-23T08:37:59.785Z,62.84
2018-05-23T08:40:27.170Z,62.35
2018-05-23T08:42:54.560Z,60.98
2018-05-23T08:45:21.959Z,61.63
2018-05-23T08:47:49.365Z,62.42
2018-05-23T08:50:16.765Z,61.50
2018-05-23T08:52:44.167Z,61.08
2018-05-23T08:55:11.671Z,59.72
2018-05-23T08:57:39.059Z,59.32
2018-05-23T09:00:06.477Z,59.10
2018-05-23T09:02:33.865Z,59.29
2018-05-23T09:05:01.341Z,59.51
2018-05-23T09:07:28.674Z,59.16
2018-05-23T09:09:56.180Z,58.63
2018-05-23T09:12:23.673Z,58.59
2018-05-23T09:14:50.980Z,59.54
2018-05-23T09:17:18.375Z,58.55
2018-05-23T09:19:45.784Z,58.14
2018-05-23T09:22:13.189Z,57.88
2018-05-23T09:24:40.578Z,58.02
2018-05-23T09:27:07.964Z,58.25
2018-05-23T09:29:35.371Z,58.08
2018-05-23T09:32:02.768Z,59.01
2018-05-23T09:34:30.268Z,59.14
2018-05-23T09:36:57.698Z,58.47
2018-05-23T09:39:25.090Z,58.33
2018-05-23T09:41:52.489Z,57.66
2018-05-23T09:44:20.048Z,58.13
2018-05-23T09:46:47.472Z,58.43
2018-05-23T09:49:15.714Z,58.30
2018-05-23T09:51:43.126Z,58.24
2018-05-23T09:54:10.531Z,58.33
2018-05-23T09:56:37.924Z,57.79
2018-05-23T09:59:05.321Z,57.79
2018-05-23T10:01:32.919Z,56.98
2018-05-23T10:04:00.274Z,56.05
2018-05-23T10:06:27.664Z,54.92
2018-05-23T10:08:55.054Z,54.71
2018-05-23T10:11:22.458Z,53.80
2018-05-23T10:13:49.852Z,54.20
2018-05-23T10:16:17.270Z,53.62
2018-05-23T10:18:44.663Z,53.73
2018-05-23T10:21:12.057Z,52.72
2018-05-23T10:23:39.456Z,51.36
2018-05-23T10:26:06.838Z,51.77
2018-05-23T10:28:34.350Z,51.36
2018-05-23T10:31:01.741Z,50.53
2018-05-23T10:33:29.202Z,49.61
2018-05-23T10:35:56.525Z,49.77
2018-05-23T10:38:23.912Z,49.76
2018-05-23T10:40:51.328Z,49.33
2018-05-23T10:43:18.699Z,49.52
2018-05-23T10:45:46.093Z,50.18
2018-05-23T10:48:13.481Z,49.02
2018-05-23T10:50:40.879Z,49.46
2018-05-23T10:53:08.257Z,49.93
2018-05-23T10:55:35.663Z,49.51
2018-05-23T10:58:03.044Z,49.55
2018-05-23T11:00:30.431Z,49.49
2018-05-23T11:02:57.878Z,48.96
2018-05-23T11:05:25.215Z,48.56
2018-05-23T11:07:52.609Z,48.62
2018-05-23T11:10:20.017Z,47.82
2018-05-23T11:12:47.401Z,47.75
2018-05-23T11:15:14.840Z,46.74
2018-05-23T11:17:42.193Z,46.17
2018-05-23T11:20:09.588Z,46.83
2018-05-23T11:22:36.977Z,45.81
2018-05-23T11:25:04.371Z,46.06
2018-05-23T11:27:31.834Z,46.18
2018-05-23T11:29:59.217Z,45.15
2018-05-23T11:32:26.616Z,44.79
2018-05-23T11:34:53.998Z,44.58
2018-05-23T11:37:21.468Z,44.29
2018-05-23T11:39:48.879Z,43.79
2018-05-23T11:42:17.472Z,43.88
2018-05-23T11:44:45.124Z,43.55
2018-05-23T11:47:12.522Z,43.87
2018-05-23T11:49:39.906Z,43.86
2018-05-23T11:52:07.368Z,43.82
2018-05-23T11:54:34.795Z,42.93
2018-05-23T11:57:02.152Z,41.79
2018-05-23T11:59:29.544Z,41.11
2018-05-23T12:01:57.020Z,40.44
2018-05-23T12:04:24.476Z,40.25
2018-05-23T12:06:51.870Z,40.37
2018-05-23T12:09:19.307Z,40.00
2018-05-23T12:11:46.740Z,39.74
2018-05-23T12:14:14.147Z,39.29
2018-05-23T12:16:42.533Z,39.05
2018-05-23T12:19:09.947Z,37.89
2018-05-23T12:21:37.349Z,37.34
2018-05-23T12:24:04.723Z,36.19
2018-05-23T12:26:32.175Z,36.09
2018-05-23T12:28:59.572Z,35.09
2018-05-23T12:31:27.015Z,34.13
2018-05-23T12:33:54.404Z,32.75
2018-05-23T12:36:21.821Z,33.59
2018-05-23T12:38:49.203Z,33.66
2018-05-23T12:41:16.836Z,32.96
2018-05-23T12:43:44.220Z,34.03
2018-05-23T12:46:11.620Z,34.10
2018-05-23T12:48:39.008Z,32.71
2018-05-23T12:51:06.407Z,31.41
2018-05-23T12:53:33.791Z,31.81
2018-05-23T12:56:02.181Z,34.10
2018-05-23T12:58:29.590Z,35.29
2018-05-23T13:00:56.976Z,37.40
2018-05-23T13:03:24.462Z,39.18
2018-05-23T13:05:51.796Z,37.10
2018-05-23T13:08:19.189Z,35.18
2018-05-23T13:10:46.580Z,33.69
2018-05-23T13:13:13.962Z,34.13
2018-05-23T13:15:41.367Z,34.91
2018-05-23T13:18:08.811Z,36.96
2018-05-23T13:20:36.204Z,38.46
2018-05-23T13:23:03.589Z,39.21
2018-05-23T13:25:30.980Z,38.69
2018-05-23T13:27:58.403Z,35.23
2018-05-23T13:30:25.810Z,33.13
2018-05-23T13:32:53.200Z,30.34
2018-05-23T13:35:20.611Z,30.04
2018-05-23T13:37:47.996Z,29.44
2018-05-23T13:40:15.423Z,28.69
2018-05-23T13:42:42.807Z,29.18
2018-05-23T13:45:10.199Z,32.28
2018-05-23T13:47:37.578Z,35.43
2018-05-23T13:50:05.197Z,43.43
2018-05-23T13:52:32.705Z,47.25
2018-05-23T13:55:00.228Z,65.36
2018-05-23T13:57:27.632Z,66.80
2018-05-23T13:59:55.020Z,66.99
2018-05-23T14:02:22.686Z,67.88
2018-05-23T14:04:50.124Z,66.05
2018-05-23T14:07:17.511Z,64.45
2018-05-23T14:09:45.249Z,62.11
2018-05-23T14:12:12.660Z,62.42
2018-05-23T14:14:40.045Z,60.99
2018-05-23T14:17:07.443Z,59.69
2018-05-23T14:19:35.789Z,60.98
2018-05-23T14:22:03.266Z,63.21
2018-05-23T14:24:30.657Z,62.15
2018-05-23T14:26:58.051Z,61.39
2018-05-23T14:29:25.483Z,61.85
2018-05-23T14:31:52.888Z,62.84
2018-05-23T14:34:20.285Z,59.50
2018-05-23T14:36:47.696Z,54.19
2018-05-23T14:39:15.066Z,51.87
2018-05-23T14:41:42.468Z,51.33
2018-05-23T14:44:09.855Z,51.50
2018-05-23T14:46:37.253Z,51.38
2018-05-23T14:49:04.741Z,50.90
2018-05-23T14:51:32.146Z,50.90
2018-05-23T14:53:59.532Z,51.59
2018-05-23T14:56:26.940Z,51.28
2018-05-23T14:58:54.340Z,51.62
2018-05-23T15:01:21.738Z,51.90
2018-05-23T15:03:52.516Z,51.93
2018-05-23T15:06:19.917Z,52.15
2018-05-23T15:08:47.829Z,54.55
2018-05-23T15:11:15.220Z,55.51
2018-05-23T15:13:42.671Z,57.38
2018-05-23T15:16:11.031Z,56.37
2018-05-23T15:18:38.448Z,57.43
2018-05-23T15:21:06.087Z,57.12
2018-05-23T15:23:33.467Z,58.37
2018-05-23T15:26:11.170Z,58.20
2018-05-23T15:28:38.577Z,59.29
2018-05-23T15:31:06.312Z,58.79
2018-05-23T15:33:33.739Z,59.49
2018-05-23T15:36:01.163Z,58.29
2018-05-23T15:38:34.161Z,61.27
2018-05-23T15:41:01.558Z,60.12
2018-05-23T15:43:28.956Z,60.71
2018-05-23T15:45:56.406Z,60.25
2018-05-23T15:48:23.832Z,61.95
2018-05-23T15:50:51.231Z,61.41
2018-05-23T15:53:18.686Z,61.66
2018-05-23T15:55:47.167Z,62.11
2018-05-23T15:58:14.557Z,61.64
2018-05-23T16:00:41.961Z,62.06
2018-05-23T16:03:09.351Z,62.52
2018-05-23T16:05:37.724Z,62.48
2018-05-23T16:08:05.124Z,62.85
2018-05-23T16:10:32.518Z,62.21
2018-05-23T16:12:59.924Z,62.44
2018-05-23T16:15:27.321Z,61.87
2018-05-23T16:17:54.704Z,59.47
2018-05-23T16:20:22.106Z,60.90
2018-05-23T16:22:49.500Z,60.77
2018-05-23T16:25:16.892Z,59.24
2018-05-23T16:27:44.287Z,61.42
2018-05-23T16:30:11.674Z,60.68
2018-05-23T16:32:39.055Z,61.26
2018-05-23T16:35:06.483Z,61.17
2018-05-23T16:37:33.876Z,63.00
2018-05-23T16:40:01.266Z,63.29
2018-05-23T16:42:28.657Z,62.95
2018-05-23T16:44:56.042Z,63.78
2018-05-23T16:47:23.446Z,63.34
2018-05-23T16:49:50.825Z,63.59
2018-05-23T16:52:18.273Z,64.90
2018-05-23T16:54:45.679Z,63.50
2018-05-23T16:57:13.068Z,63.62
2018-05-23T16:59:40.449Z,64.79
2018-05-23T17:02:07.857Z,66.16
2018-05-23T17:04:35.248Z,66.66
2018-05-23T17:07:02.640Z,68.15
2018-05-23T17:09:30.029Z,67.33
2018-05-23T17:11:57.424Z,67.74
2018-05-23T17:14:24.803Z,66.75
2018-05-23T17:16:52.187Z,66.22
2018-05-23T17:19:19.566Z,67.30
2018-05-23T17:21:48.426Z,67.34
2018-05-23T17:24:15.846Z,67.41
2018-05-23T17:26:43.244Z,67.40
2018-05-23T17:29:10.624Z,66.82
2018-05-23T17:31:38.014Z,66.94
2018-05-23T17:34:05.390Z,66.95
2018-05-23T17:36:32.787Z,67.00
2018-05-23T17:39:01.103Z,67.23
2018-05-23T17:41:28.505Z,67.06
2018-05-23T17:43:55.898Z,66.97
2018-05-23T17:46:23.311Z,67.60
2018-05-23T17:48:50.777Z,68.49
2018-05-23T17:51:18.076Z,68.14
2018-05-23T17:53:45.454Z,68.76
2018-05-23T17:56:12.885Z,67.47
2018-05-23T17:58:40.240Z,68.36
2018-05-23T18:01:07.688Z,68.49
2018-05-23T18:03:35.075Z,67.93
2018-05-23T18:06:02.571Z,68.55
2018-05-23T18:08:29.873Z,69.20
2018-05-23T18:10:57.301Z,68.98
2018-05-23T18:13:24.657Z,68.77
2018-05-23T18:15:52.044Z,69.28
2018-05-23T18:18:19.448Z,69.00
2018-05-23T18:20:47.773Z,68.86
2018-05-23T18:23:15.166Z,68.14
2018-05-23T18:25:42.556Z,68.54
2018-05-23T18:28:10.034Z,69.25
2018-05-23T18:30:37.347Z,68.11
2018-05-23T18:33:04.725Z,68.12
2018-05-23T18:35:32.106Z,68.80
2018-05-23T18:37:59.512Z,69.12
2018-05-23T18:40:26.899Z,68.43
2018-05-23T18:42:54.286Z,69.09
2018-05-23T18:45:21.682Z,68.04
2018-05-23T18:47:49.083Z,70.25
2018-05-23T18:50:16.471Z,68.62
2018-05-23T18:52:44.239Z,69.59
2018-05-23T18:55:11.625Z,69.76
2018-05-23T18:57:39.031Z,69.64
2018-05-23T19:00:06.427Z,68.62
2018-05-23T19:02:33.816Z,69.59
2018-05-23T19:05:01.253Z,69.85
2018-05-23T19:07:28.600Z,69.62
2018-05-23T19:09:55.987Z,68.28
2018-05-23T19:12:23.395Z,69.62
2018-05-23T19:14:50.783Z,69.62
2018-05-23T19:17:19.004Z,71.02
2018-05-23T19:19:46.507Z,69.94
2018-05-23T19:22:13.816Z,70.30
2018-05-23T19:24:41.213Z,70.51
2018-05-23T19:27:08.601Z,70.73
2018-05-23T19:29:35.989Z,69.36
2018-05-23T19:32:03.396Z,69.38
2018-05-23T19:34:30.773Z,70.48
2018-05-23T19:36:58.165Z,70.10
2018-05-23T19:39:25.561Z,70.39
2018-05-23T19:41:52.942Z,70.54
2018-05-23T19:44:20.330Z,70.56
2018-05-23T19:46:48.170Z,69.14
2018-05-23T19:49:15.568Z,69.89
2018-05-23T19:51:42.985Z,70.66
2018-05-23T19:54:10.486Z,70.54
2018-05-23T19:56:37.930Z,72.73
2018-05-23T19:59:05.271Z,71.84
2018-05-23T20:01:32.671Z,71.81
2018-05-23T20:04:00.086Z,71.06
2018-05-23T20:06:27.481Z,71.35
2018-05-23T20:08:54.886Z,72.14
2018-05-23T20:11:22.270Z,71.84
2018-05-23T20:13:49.670Z,71.87
2018-05-23T20:16:17.055Z,71.50
2018-05-23T20:18:44.655Z,71.41
2018-05-23T20:21:12.049Z,72.71
2018-05-23T20:23:39.448Z,72.47
2018-05-23T20:26:06.840Z,72.53
2018-05-23T20:28:34.250Z,71.48
2018-05-23T20:31:01.639Z,72.02
2018-05-23T20:33:29.035Z,71.68
2018-05-23T20:35:56.423Z,72.22
2018-05-23T20:38:23.831Z,71.88
2018-05-23T20:40:51.228Z,72.04
2018-05-23T20:43:19.102Z,72.26
2018-05-23T20:45:46.503Z,71.10
2018-05-23T20:48:13.900Z,72.44
2018-05-23T20:50:41.280Z,72.03
2018-05-23T20:53:08.752Z,72.13
2018-05-23T20:55:36.074Z,72.57
2018-05-23T20:58:03.465Z,72.80
2018-05-23T21:00:30.860Z,73.11
2018-05-23T21:02:58.255Z,72.24
2018-05-23T21:05:25.789Z,72.48
2018-05-23T21:07:53.055Z,71.80
2018-05-23T21:10:20.438Z,71.54
2018-05-23T21:12:48.555Z,72.26
2018-05-23T21:15:15.959Z,71.25
2018-05-23T21:17:43.371Z,71.58
2018-05-23T21:20:10.819Z,71.74
2018-05-23T21:22:38.223Z,71.44
2018-05-23T21:25:05.604Z,71.37
2018-05-23T21:27:33.007Z,72.74
2018-05-23T21:30:00.393Z,72.23
2018-05-23T21:32:27.787Z,72.91
2018-05-23T21:34:55.570Z,72.50
2018-05-23T21:37:22.966Z,72.87
2018-05-23T21:39:50.355Z,73.15
2018-05-23T21:42:18.707Z,70.99
2018-05-23T21:44:46.101Z,71.33
2018-05-23T21:47:13.695Z,71.90
2018-05-23T21:49:41.139Z,71.85
2018-05-23T21:52:08.568Z,71.56
2018-05-23T21:54:35.983Z,71.36
2018-05-23T21:57:03.472Z,72.08
2018-05-23T21:59:30.951Z,71.23
2018-05-23T22:01:58.343Z,71.09
2018-05-23T22:04:25.743Z,71.63
2018-05-23T22:06:53.142Z,72.21
2018-05-23T22:09:20.544Z,71.56
2018-05-23T22:11:48.819Z,71.33
2018-05-23T22:14:16.229Z,70.89
2018-05-23T22:16:43.619Z,71.43
2018-05-23T22:19:11.024Z,72.30
2018-05-23T22:21:38.416Z,72.35
2018-05-23T22:24:05.811Z,71.81
2018-05-23T22:26:33.479Z,71.68
2018-05-23T22:29:00.883Z,71.10
2018-05-23T22:31:28.263Z,71.76
2018-05-23T22:33:55.672Z,71.45
2018-05-23T22:36:23.056Z,71.00
2018-05-23T22:38:50.466Z,70.79
2018-05-23T22:41:17.867Z,71.29
2018-05-23T22:43:45.272Z,71.82
2018-05-23T22:46:12.660Z,71.70
2018-05-23T22:48:40.093Z,72.35
2018-05-23T22:51:07.476Z,72.02
2018-05-23T22:53:34.874Z,71.72
2018-05-23T22:56:03.198Z,71.60
2018-05-23T22:58:30.598Z,72.26
2018-05-23T23:00:58.093Z,72.13
2018-05-23T23:03:25.492Z,71.75
2018-05-23T23:05:52.882Z,72.08
2018-05-23T23:08:20.361Z,71.52
2018-05-23T23:10:47.747Z,72.30
2018-05-23T23:13:15.143Z,71.92
2018-05-23T23:15:42.533Z,71.23
2018-05-23T23:18:09.939Z,72.10
2018-05-23T23:20:37.331Z,71.08
2018-05-23T23:23:04.742Z,70.85
2018-05-23T23:25:32.123Z,71.19
2018-05-23T23:27:59.532Z,71.72
2018-05-23T23:30:26.928Z,72.01
2018-05-23T23:32:54.345Z,71.97
2018-05-23T23:35:21.758Z,71.55
2018-05-23T23:37:49.280Z,71.77
2018-05-23T23:40:16.680Z,72.16
2018-05-23T23:42:44.084Z,72.22
2018-05-23T23:45:11.469Z,71.08
2018-05-23T23:47:38.871Z,71.19
2018-05-23T23:50:06.279Z,71.71
2018-05-23T23:52:33.671Z,71.22
2018-05-23T23:55:01.086Z,71.49
2018-05-23T23:57:28.506Z,71.53
2018-05-23T23:59:55.915Z,71.35
